createdAt,value
2023-01-13T00:03:19.636Z,82.98
2023-01-13T00:08:19.582Z,82.98
2023-01-13T00:13:19.513Z,83.08
2023-01-13T00:18:19.445Z,83.19
2023-01-13T00:23:19.379Z,83.29
2023-01-13T00:28:19.315Z,83.39
2023-01-13T00:33:19.256Z,83.49
2023-01-13T00:38:19.174Z,83.19
2023-01-13T00:43:19.110Z,83.19
2023-01-13T00:48:19.044Z,83.19
2023-01-13T00:53:18.979Z,82.98
2023-01-13T00:58:18.898Z,82.78
2023-01-13T01:03:18.836Z,82.64
2023-01-13T01:08:18.782Z,82.53
2023-01-13T01:13:18.699Z,82.43
2023-01-13T01:18:18.625Z,82.23
2023-01-13T01:23:18.562Z,82.12
2023-01-13T01:28:18.521Z,82.12
2023-01-13T01:33:18.432Z,82.33
2023-01-13T01:38:18.371Z,82.23
2023-01-13T01:43:18.303Z,82.33
2023-01-13T01:48:18.227Z,82.53
2023-01-13T01:53:18.157Z,82.84
2023-01-13T01:58:18.124Z,82.94
2023-01-13T02:03:18.043Z,83.25
2023-01-13T02:08:17.980Z,83.15
2023-01-13T02:13:17.911Z,82.84
2023-01-13T02:18:17.832Z,82.53
2023-01-13T02:23:17.772Z,82.29
2023-01-13T02:28:17.709Z,81.98
2023-01-13T02:33:17.639Z,82.29
2023-01-13T02:38:17.562Z,81.78
2023-01-13T02:43:17.495Z,82.19
2023-01-13T02:48:17.431Z,82.29
2023-01-13T02:53:17.358Z,82.19
2023-01-13T02:58:17.303Z,82.09
2023-01-13T03:03:17.090Z,81.98
2023-01-13T03:08:17.033Z,82.09
2023-01-13T03:13:16.961Z,82.04
2023-01-13T03:18:16.896Z,82.25
2023-01-13T03:23:16.830Z,82.45
2023-01-13T03:28:16.769Z,82.15
2023-01-13T03:33:16.687Z,82.25
2023-01-13T03:38:16.639Z,82.36
2023-01-13T03:43:16.556Z,82.04
2023-01-13T03:48:16.505Z,82.15
2023-01-13T03:53:16.438Z,82.25
2023-01-13T03:58:16.420Z,82.45
2023-01-13T04:03:16.294Z,82.70
2023-01-13T04:08:16.230Z,83.01
2023-01-13T04:13:16.155Z,83.21
2023-01-13T04:18:16.098Z,83.31
2023-01-13T04:23:16.041Z,83.66
2023-01-13T04:28:15.964Z,83.86
2023-01-13T04:33:15.891Z,83.86
2023-01-13T04:38:15.836Z,83.62
2023-01-13T04:43:16.026Z,83.72
2023-01-13T04:48:15.700Z,83.92
2023-01-13T04:53:15.656Z,83.92
2023-01-13T04:58:15.563Z,83.52
2023-01-13T05:03:15.500Z,83.72
2023-01-13T05:08:15.428Z,84.13
2023-01-13T05:13:15.363Z,84.58
2023-01-13T05:18:15.297Z,84.99
2023-01-13T05:23:15.220Z,85.09
2023-01-13T05:28:15.170Z,85.09
2023-01-13T05:33:15.089Z,84.79
2023-01-13T05:38:15.036Z,84.79
2023-01-13T05:43:14.951Z,84.79
2023-01-13T05:48:14.896Z,84.99
2023-01-13T05:53:14.819Z,84.68
2023-01-13T05:58:14.784Z,84.88
2023-01-13T06:03:14.798Z,84.68
2023-01-13T06:08:14.624Z,84.47
2023-01-13T06:13:14.552Z,84.68
2023-01-13T06:18:14.496Z,84.79
2023-01-13T06:23:14.418Z,84.79
2023-01-13T06:28:14.357Z,84.79
2023-01-13T06:33:14.289Z,85.09
2023-01-13T06:38:14.221Z,86.52
2023-01-13T06:43:16.155Z,86.97
2023-01-13T06:48:14.090Z,87.18
2023-01-13T06:53:14.016Z,87.38
2023-01-13T06:58:13.966Z,88.30
2023-01-13T07:03:13.878Z,90.49
2023-01-13T07:08:13.818Z,91.77
2023-01-13T07:13:13.743Z,92.38
2023-01-13T07:18:13.685Z,92.77
2023-01-13T07:23:13.608Z,89.84
2023-01-13T07:28:13.548Z,88.40
2023-01-13T07:33:13.479Z,87.32
2023-01-13T07:38:13.416Z,86.84
2023-01-13T07:43:13.339Z,86.43
2023-01-13T07:48:13.279Z,87.60
2023-01-13T07:53:13.204Z,88.12
2023-01-13T07:58:13.146Z,87.81
2023-01-13T08:03:13.071Z,89.25
2023-01-13T08:08:13.012Z,89.35
2023-01-13T08:13:12.945Z,91.07
2023-01-13T08:18:12.880Z,86.79
2023-01-13T08:23:12.820Z,86.66
2023-01-13T08:28:12.754Z,86.97
2023-01-13T08:33:12.675Z,87.11
2023-01-13T08:38:12.617Z,87.21
2023-01-13T08:43:12.543Z,86.49
2023-01-13T08:48:12.481Z,87.46
2023-01-13T08:53:12.427Z,88.59
2023-01-13T08:58:15.726Z,89.72
2023-01-13T09:03:12.276Z,89.76
2023-01-13T09:08:12.232Z,89.76
2023-01-13T09:13:12.145Z,88.94
2023-01-13T09:18:12.100Z,87.98
2023-01-13T09:23:12.027Z,87.67
2023-01-13T09:28:11.958Z,86.54
2023-01-13T09:33:11.879Z,86.02
2023-01-13T09:38:11.836Z,85.20
2023-01-13T09:43:11.751Z,84.49
2023-01-13T09:48:11.689Z,84.89
2023-01-13T09:53:11.619Z,84.34
2023-01-13T09:58:11.600Z,82.76
2023-01-13T10:03:11.530Z,70.68
2023-01-13T10:08:11.424Z,64.56
2023-01-13T10:13:11.346Z,60.43
2023-01-13T10:18:11.325Z,58.83
2023-01-13T10:23:11.218Z,56.85
2023-01-13T10:28:11.160Z,55.74
2023-01-13T10:33:11.088Z,57.64
2023-01-13T10:38:11.027Z,58.94
2023-01-13T10:43:10.948Z,56.70
2023-01-13T10:48:10.892Z,57.03
2023-01-13T10:53:10.818Z,56.73
2023-01-13T10:58:10.759Z,56.10
2023-01-13T11:03:10.683Z,53.87
2023-01-13T11:08:10.643Z,54.07
2023-01-13T11:13:10.550Z,52.31
2023-01-13T11:18:10.493Z,52.94
2023-01-13T11:23:10.417Z,53.47
2023-01-13T11:28:10.356Z,53.60
2023-01-13T11:33:10.333Z,52.56
2023-01-13T11:38:10.220Z,51.86
2023-01-13T11:43:10.348Z,51.73
2023-01-13T11:48:10.338Z,53.97
2023-01-13T11:53:10.317Z,56.91
2023-01-13T11:58:10.360Z,59.94
2023-01-13T12:03:10.448Z,68.92
2023-01-13T12:08:10.423Z,64.23
2023-01-13T12:13:09.749Z,66.57
2023-01-13T12:18:09.694Z,66.19
2023-01-13T12:23:09.616Z,67.44
2023-01-13T12:28:09.555Z,69.01
2023-01-13T12:33:09.480Z,68.12
2023-01-13T12:38:09.422Z,67.74
2023-01-13T12:43:09.350Z,66.55
2023-01-13T12:48:09.292Z,66.58
2023-01-13T12:53:09.217Z,66.78
2023-01-13T12:58:09.158Z,70.70
2023-01-13T13:03:09.091Z,73.29
2023-01-13T13:08:09.021Z,73.29
2023-01-13T13:13:08.969Z,73.74
2023-01-13T13:18:08.883Z,72.10
2023-01-13T13:23:08.833Z,70.46
2023-01-13T13:28:08.750Z,70.97
2023-01-13T13:33:08.695Z,69.54
2023-01-13T13:38:08.616Z,69.81
2023-01-13T13:43:08.557Z,69.81
2023-01-13T13:48:08.486Z,69.81
2023-01-13T13:53:08.431Z,69.40
2023-01-13T13:58:08.346Z,69.92
2023-01-13T14:03:08.297Z,70.63
2023-01-13T14:08:08.178Z,69.81
2023-01-13T14:13:08.115Z,70.39
2023-01-13T14:18:08.032Z,70.09
2023-01-13T14:23:08.014Z,70.09
2023-01-13T14:28:07.908Z,69.71
2023-01-13T14:33:07.826Z,69.64
2023-01-13T14:38:07.748Z,68.82
2023-01-13T14:43:07.700Z,69.06
2023-01-13T14:48:07.605Z,68.34
2023-01-13T14:53:07.545Z,68.17
2023-01-13T14:58:07.468Z,68.78
2023-01-13T15:03:07.501Z,69.53
2023-01-13T15:08:07.354Z,68.61
2023-01-13T15:13:07.281Z,68.71
2023-01-13T15:18:07.258Z,69.56
2023-01-13T15:23:07.134Z,68.85
2023-01-13T15:28:07.089Z,69.47
2023-01-13T15:33:07.001Z,69.80
2023-01-13T15:38:06.930Z,70.45
2023-01-13T15:43:06.872Z,71.17
2023-01-13T15:48:06.793Z,72.23
2023-01-13T15:53:06.736Z,72.33
2023-01-13T15:58:06.658Z,72.54
2023-01-13T16:03:06.636Z,72.23
2023-01-13T16:08:06.541Z,70.97
2023-01-13T16:13:06.478Z,71.75
2023-01-13T16:18:06.411Z,71.35
2023-01-13T16:23:06.369Z,71.89
2023-01-13T16:28:06.296Z,72.30
2023-01-13T16:33:06.248Z,72.91
2023-01-13T16:38:06.184Z,73.02
2023-01-13T16:43:06.132Z,72.91
2023-01-13T16:48:06.065Z,72.71
2023-01-13T16:53:06.021Z,72.71
2023-01-13T16:58:05.945Z,73.02
2023-01-13T17:03:05.896Z,73.40
2023-01-13T17:08:05.816Z,73.29
2023-01-13T17:13:15.678Z,74.05
2023-01-13T17:18:05.685Z,74.25
2023-01-13T17:23:05.628Z,74.25
2023-01-13T17:28:05.573Z,74.67
2023-01-13T17:33:05.493Z,74.87
2023-01-13T17:38:05.423Z,75.48
2023-01-13T17:43:05.366Z,74.76
2023-01-13T17:48:05.289Z,74.76
2023-01-13T17:53:05.227Z,75.18
2023-01-13T17:58:05.156Z,80.31
2023-01-13T18:03:05.133Z,76.71
2023-01-13T18:08:05.015Z,73.77
2023-01-13T18:13:04.957Z,74.53
2023-01-13T18:18:05.012Z,74.97
2023-01-13T18:23:04.823Z,75.79
2023-01-13T18:28:04.753Z,76.14
2023-01-13T18:33:04.704Z,76.55
2023-01-13T18:38:04.626Z,76.86
2023-01-13T18:43:04.558Z,76.00
2023-01-13T18:48:04.493Z,76.41
2023-01-13T18:53:04.425Z,76.00
2023-01-13T18:58:04.355Z,77.03
2023-01-13T19:08:04.226Z,78.43
2023-01-13T19:13:04.174Z,79.05
2023-01-13T19:18:04.094Z,79.36
2023-01-13T19:23:04.034Z,79.91
2023-01-13T19:28:03.957Z,79.91
2023-01-13T19:33:03.898Z,79.77
2023-01-13T19:38:03.830Z,80.32
2023-01-13T19:43:03.766Z,80.42
2023-01-13T19:48:03.702Z,80.32
2023-01-13T19:53:03.634Z,80.63
2023-01-13T19:58:03.574Z,80.49
2023-01-13T20:03:03.662Z,80.73
2023-01-13T20:08:03.433Z,81.04
2023-01-13T20:13:03.369Z,81.35
2023-01-13T20:18:03.293Z,80.94
2023-01-13T20:23:03.235Z,80.84
2023-01-13T20:28:03.163Z,81.14
2023-01-13T20:33:03.125Z,80.94
2023-01-13T20:38:03.034Z,81.14
2023-01-13T20:43:02.965Z,81.25
2023-01-13T20:48:02.893Z,81.35
2023-01-13T20:53:02.833Z,81.80
2023-01-13T20:58:02.761Z,81.90
2023-01-13T21:03:02.708Z,81.70
2023-01-13T21:08:02.626Z,81.49
2023-01-13T21:13:02.568Z,81.39
2023-01-13T21:18:02.494Z,81.59
2023-01-13T21:23:02.452Z,81.59
2023-01-13T21:28:02.361Z,81.35
2023-01-13T21:33:02.301Z,81.56
2023-01-13T21:38:02.227Z,81.66
2023-01-13T21:43:02.168Z,81.35
2023-01-13T21:48:02.125Z,81.14
2023-01-13T21:53:02.035Z,81.59
2023-01-13T21:58:01.961Z,82.00
2023-01-13T22:03:01.910Z,82.56
2023-01-13T22:08:01.836Z,82.76
2023-01-13T22:13:01.768Z,82.76
2023-01-13T22:18:01.696Z,82.97
2023-01-13T22:23:01.635Z,83.17
2023-01-13T22:28:01.571Z,83.17
2023-01-13T22:33:01.562Z,83.07
2023-01-13T22:38:01.435Z,83.28
2023-01-13T22:43:01.397Z,82.87
2023-01-13T22:48:01.296Z,82.59
2023-01-13T22:53:01.235Z,82.59
2023-01-13T22:58:01.169Z,82.49
2023-01-13T23:03:01.104Z,82.59
2023-01-13T23:08:01.028Z,82.29
2023-01-13T23:13:00.973Z,82.18
2023-01-13T23:18:00.897Z,82.18
2023-01-13T23:23:00.851Z,81.98
2023-01-13T23:28:00.769Z,81.98
2023-01-13T23:33:00.708Z,81.87
2023-01-13T23:38:00.631Z,81.77
2023-01-13T23:43:00.580Z,81.57
2023-01-13T23:48:00.532Z,81.15
2023-01-13T23:53:00.437Z,81.46
2023-01-13T23:58:00.363Z,81.46
